sensor_id;sensor_type;location;lat;lon;timestamp;P1;durP1;ratioP1;P2;durP2;ratioP2
6667;SDS011;3370;47.712;9.082;2022-11-15T00:00:51;20.23;;;11.67;;
6667;SDS011;3370;47.712;9.082;2022-11-15T00:03:19;18.43;;;9.97;;
6667;SDS011;3370;47.712;9.082;2022-11-15T00:05:48;54.60;;;10.97;;
6667;SDS011;3370;47.712;9.082;2022-11-15T00:08:14;36.53;;;11.40;;
6667;SDS011;3370;47.712;9.082;2022-11-15T00:10:40;16.67;;;11.07;;
6667;SDS011;3370;47.712;9.082;2022-11-15T00:13:07;98.83;;;12.70;;
6667;SDS011;3370;47.712;9.082;2022-11-15T00:15:35;29.60;;;12.67;;
6667;SDS011;3370;47.712;9.082;2022-11-15T00:18:03;121.47;;;12.60;;
6667;SDS011;3370;47.712;9.082;2022-11-15T00:20:30;79.27;;;11.97;;
6667;SDS011;3370;47.712;9.082;2022-11-15T00:22:58;20.30;;;11.97;;
6667;SDS011;3370;47.712;9.082;2022-11-15T00:25:24;99.50;;;13.13;;
6667;SDS011;3370;47.712;9.082;2022-11-15T00:27:50;26.23;;;11.33;;
6667;SDS011;3370;47.712;9.082;2022-11-15T00:30:20;18.23;;;11.20;;
6667;SDS011;3370;47.712;9.082;2022-11-15T00:32:46;29.43;;;12.60;;
6667;SDS011;3370;47.712;9.082;2022-11-15T00:35:11;20.43;;;11.17;;
6667;SDS011;3370;47.712;9.082;2022-11-15T00:37:37;35.67;;;11.63;;
6667;SDS011;3370;47.712;9.082;2022-11-15T00:40:03;17.53;;;10.90;;
6667;SDS011;3370;47.712;9.082;2022-11-15T00:42:29;14.83;;;10.77;;
6667;SDS011;3370;47.712;9.082;2022-11-15T00:44:55;43.50;;;11.40;;
6667;SDS011;3370;47.712;9.082;2022-11-15T00:47:21;48.20;;;10.17;;
6667;SDS011;3370;47.712;9.082;2022-11-15T00:49:47;53.83;;;11.57;;
6667;SDS011;3370;47.712;9.082;2022-11-15T00:52:13;21.63;;;10.37;;
6667;SDS011;3370;47.712;9.082;2022-11-15T00:54:39;75.87;;;11.40;;
6667;SDS011;3370;47.712;9.082;2022-11-15T00:57:05;32.40;;;10.07;;
6667;SDS011;3370;47.712;9.082;2022-11-15T00:59:31;22.23;;;10.20;;
6667;SDS011;3370;47.712;9.082;2022-11-15T01:01:57;21.13;;;10.13;;
6667;SDS011;3370;47.712;9.082;2022-11-15T01:04:22;121.27;;;11.10;;
6667;SDS011;3370;47.712;9.082;2022-11-15T01:06:48;45.33;;;10.20;;
6667;SDS011;3370;47.712;9.082;2022-11-15T01:09:14;14.90;;;7.73;;
6667;SDS011;3370;47.712;9.082;2022-11-15T01:11:40;18.03;;;9.90;;
6667;SDS011;3370;47.712;9.082;2022-11-15T01:14:06;27.93;;;8.90;;
6667;SDS011;3370;47.712;9.082;2022-11-15T01:16:32;14.53;;;9.97;;
6667;SDS011;3370;47.712;9.082;2022-11-15T01:18:58;32.67;;;10.40;;
6667;SDS011;3370;47.712;9.082;2022-11-15T01:21:24;80.20;;;11.27;;
6667;SDS011;3370;47.712;9.082;2022-11-15T01:23:54;123.67;;;12.10;;
6667;SDS011;3370;47.712;9.082;2022-11-15T01:26:24;59.60;;;10.00;;
6667;SDS011;3370;47.712;9.082;2022-11-15T01:28:50;18.50;;;10.00;;
6667;SDS011;3370;47.712;9.082;2022-11-15T01:31:17;60.60;;;10.50;;
6667;SDS011;3370;47.712;9.082;2022-11-15T01:33:45;75.00;;;9.70;;
6667;SDS011;3370;47.712;9.082;2022-11-15T01:36:16;95.50;;;11.57;;
6667;SDS011;3370;47.712;9.082;2022-11-15T01:38:47;25.23;;;8.30;;
6667;SDS011;3370;47.712;9.082;2022-11-15T01:41:24;24.60;;;10.17;;
6667;SDS011;3370;47.712;9.082;2022-11-15T01:43:57;19.33;;;9.90;;
6667;SDS011;3370;47.712;9.082;2022-11-15T01:46:57;16.60;;;9.43;;
6667;SDS011;3370;47.712;9.082;2022-11-15T01:49:26;23.70;;;9.33;;
6667;SDS011;3370;47.712;9.082;2022-11-15T01:51:55;15.27;;;8.83;;
6667;SDS011;3370;47.712;9.082;2022-11-15T01:54:22;16.80;;;9.30;;
6667;SDS011;3370;47.712;9.082;2022-11-15T01:56:53;18.03;;;8.73;;
6667;SDS011;3370;47.712;9.082;2022-11-15T01:59:26;10.33;;;7.90;;
6667;SDS011;3370;47.712;9.082;2022-11-15T02:01:52;14.67;;;9.10;;
6667;SDS011;3370;47.712;9.082;2022-11-15T02:04:20;38.60;;;9.83;;
6667;SDS011;3370;47.712;9.082;2022-11-15T02:06:52;63.83;;;11.00;;
6667;SDS011;3370;47.712;9.082;2022-11-15T02:09:18;22.70;;;8.00;;
6667;SDS011;3370;47.712;9.082;2022-11-15T02:11:44;23.03;;;9.00;;
6667;SDS011;3370;47.712;9.082;2022-11-15T02:14:12;12.33;;;8.87;;
6667;SDS011;3370;47.712;9.082;2022-11-15T02:34:29;17.03;;;8.67;;
6667;SDS011;3370;47.712;9.082;2022-11-15T02:43:28;15.33;;;9.07;;
6667;SDS011;3370;47.712;9.082;2022-11-15T02:49:24;62.50;;;9.70;;
6667;SDS011;3370;47.712;9.082;2022-11-15T02:51:56;96.30;;;8.67;;
6667;SDS011;3370;47.712;9.082;2022-11-15T02:54:23;8.97;;;7.63;;
6667;SDS011;3370;47.712;9.082;2022-11-15T02:56:53;13.30;;;9.17;;
6667;SDS011;3370;47.712;9.082;2022-11-15T03:08:27;17.20;;;9.43;;
6667;SDS011;3370;47.712;9.082;2022-11-15T03:11:03;10.93;;;8.53;;
6667;SDS011;3370;47.712;9.082;2022-11-15T03:13:57;9.73;;;8.43;;
6667;SDS011;3370;47.712;9.082;2022-11-15T03:22:18;14.47;;;7.90;;
6667;SDS011;3370;47.712;9.082;2022-11-15T03:24:52;11.77;;;7.07;;
6667;SDS011;3370;47.712;9.082;2022-11-15T03:27:23;10.00;;;8.20;;
6667;SDS011;3370;47.712;9.082;2022-11-15T03:30:02;10.13;;;8.43;;
6667;SDS011;3370;47.712;9.082;2022-11-15T03:32:36;9.10;;;8.20;;
6667;SDS011;3370;47.712;9.082;2022-11-15T03:35:11;9.70;;;8.70;;
6667;SDS011;3370;47.712;9.082;2022-11-15T03:37:50;8.70;;;7.67;;
6667;SDS011;3370;47.712;9.082;2022-11-15T03:40:55;8.33;;;7.53;;
6667;SDS011;3370;47.712;9.082;2022-11-15T03:46:22;9.87;;;7.97;;
6667;SDS011;3370;47.712;9.082;2022-11-15T03:49:05;10.50;;;8.07;;
6667;SDS011;3370;47.712;9.082;2022-11-15T03:51:38;10.00;;;8.10;;
6667;SDS011;3370;47.712;9.082;2022-11-15T03:54:04;9.53;;;8.53;;
6667;SDS011;3370;47.712;9.082;2022-11-15T03:56:31;11.03;;;9.00;;
6667;SDS011;3370;47.712;9.082;2022-11-15T03:58:57;14.40;;;9.63;;
6667;SDS011;3370;47.712;9.082;2022-11-15T04:01:23;12.07;;;10.40;;
6667;SDS011;3370;47.712;9.082;2022-11-15T04:03:49;11.47;;;9.13;;
6667;SDS011;3370;47.712;9.082;2022-11-15T04:06:14;10.47;;;9.40;;
6667;SDS011;3370;47.712;9.082;2022-11-15T04:08:40;13.60;;;10.73;;
6667;SDS011;3370;47.712;9.082;2022-11-15T04:11:06;19.50;;;9.27;;
6667;SDS011;3370;47.712;9.082;2022-11-15T04:13:32;17.40;;;9.90;;
6667;SDS011;3370;47.712;9.082;2022-11-15T04:15:58;11.40;;;9.70;;
6667;SDS011;3370;47.712;9.082;2022-11-15T04:18:24;12.60;;;8.83;;
6667;SDS011;3370;47.712;9.082;2022-11-15T04:20:50;12.93;;;10.30;;
6667;SDS011;3370;47.712;9.082;2022-11-15T04:23:34;16.20;;;9.80;;
6667;SDS011;3370;47.712;9.082;2022-11-15T04:26:19;16.93;;;10.00;;
6667;SDS011;3370;47.712;9.082;2022-11-15T04:28:47;11.23;;;9.70;;
6667;SDS011;3370;47.712;9.082;2022-11-15T04:31:32;79.87;;;11.80;;
6667;SDS011;3370;47.712;9.082;2022-11-15T04:33:58;14.53;;;10.60;;
6667;SDS011;3370;47.712;9.082;2022-11-15T04:36:24;16.57;;;11.57;;
6667;SDS011;3370;47.712;9.082;2022-11-15T04:39:08;13.17;;;10.70;;
6667;SDS011;3370;47.712;9.082;2022-11-15T04:41:34;14.90;;;11.80;;
6667;SDS011;3370;47.712;9.082;2022-11-15T04:44:00;52.67;;;10.73;;
6667;SDS011;3370;47.712;9.082;2022-11-15T04:46:26;14.07;;;11.07;;
6667;SDS011;3370;47.712;9.082;2022-11-15T04:48:52;10.23;;;8.90;;
6667;SDS011;3370;47.712;9.082;2022-11-15T04:51:19;11.53;;;9.70;;
6667;SDS011;3370;47.712;9.082;2022-11-15T04:53:45;10.90;;;8.43;;
6667;SDS011;3370;47.712;9.082;2022-11-15T04:56:11;11.20;;;9.60;;
6667;SDS011;3370;47.712;9.082;2022-11-15T04:58:37;11.23;;;10.03;;
6667;SDS011;3370;47.712;9.082;2022-11-15T05:01:10;13.30;;;9.30;;
6667;SDS011;3370;47.712;9.082;2022-11-15T05:03:39;15.90;;;10.50;;
6667;SDS011;3370;47.712;9.082;2022-11-15T05:06:24;11.37;;;9.23;;
6667;SDS011;3370;47.712;9.082;2022-11-15T05:08:50;11.10;;;9.60;;
6667;SDS011;3370;47.712;9.082;2022-11-15T05:11:16;10.27;;;9.17;;
6667;SDS011;3370;47.712;9.082;2022-11-15T05:13:42;9.43;;;8.43;;
6667;SDS011;3370;47.712;9.082;2022-11-15T05:16:08;9.83;;;8.27;;
6667;SDS011;3370;47.712;9.082;2022-11-15T05:18:33;11.80;;;9.20;;
6667;SDS011;3370;47.712;9.082;2022-11-15T05:21:06;11.33;;;9.33;;
6667;SDS011;3370;47.712;9.082;2022-11-15T05:23:35;11.63;;;10.33;;
6667;SDS011;3370;47.712;9.082;2022-11-15T05:26:01;14.93;;;10.47;;
6667;SDS011;3370;47.712;9.082;2022-11-15T05:28:29;11.50;;;9.47;;
6667;SDS011;3370;47.712;9.082;2022-11-15T05:31:02;11.17;;;9.97;;
6667;SDS011;3370;47.712;9.082;2022-11-15T05:33:33;22.20;;;9.87;;
6667;SDS011;3370;47.712;9.082;2022-11-15T05:38:53;16.23;;;10.10;;
6667;SDS011;3370;47.712;9.082;2022-11-15T05:41:20;131.67;;;11.60;;
6667;SDS011;3370;47.712;9.082;2022-11-15T05:44:12;64.20;;;11.50;;
6667;SDS011;3370;47.712;9.082;2022-11-15T05:46:42;36.23;;;8.60;;
6667;SDS011;3370;47.712;9.082;2022-11-15T05:49:11;14.33;;;9.23;;
6667;SDS011;3370;47.712;9.082;2022-11-15T05:51:41;15.50;;;8.33;;
6667;SDS011;3370;47.712;9.082;2022-11-15T05:54:09;16.50;;;8.80;;
6667;SDS011;3370;47.712;9.082;2022-11-15T05:56:36;12.27;;;9.03;;
6667;SDS011;3370;47.712;9.082;2022-11-15T05:59:03;11.00;;;9.37;;
6667;SDS011;3370;47.712;9.082;2022-11-15T06:01:30;10.80;;;8.27;;
6667;SDS011;3370;47.712;9.082;2022-11-15T06:03:56;10.63;;;9.30;;
6667;SDS011;3370;47.712;9.082;2022-11-15T06:06:22;13.17;;;9.97;;
6667;SDS011;3370;47.712;9.082;2022-11-15T06:08:47;17.40;;;10.73;;
6667;SDS011;3370;47.712;9.082;2022-11-15T06:11:13;18.37;;;10.87;;
6667;SDS011;3370;47.712;9.082;2022-11-15T06:13:39;10.73;;;9.60;;
6667;SDS011;3370;47.712;9.082;2022-11-15T06:16:05;15.50;;;9.27;;
6667;SDS011;3370;47.712;9.082;2022-11-15T06:18:32;9.97;;;8.90;;
6667;SDS011;3370;47.712;9.082;2022-11-15T06:20:59;12.60;;;10.50;;
6667;SDS011;3370;47.712;9.082;2022-11-15T06:23:26;11.23;;;9.30;;
6667;SDS011;3370;47.712;9.082;2022-11-15T06:25:53;11.20;;;10.00;;
6667;SDS011;3370;47.712;9.082;2022-11-15T06:28:22;13.03;;;9.30;;
6667;SDS011;3370;47.712;9.082;2022-11-15T06:30:48;13.10;;;9.30;;
6667;SDS011;3370;47.712;9.082;2022-11-15T06:33:14;24.60;;;22.13;;
6667;SDS011;3370;47.712;9.082;2022-11-15T06:35:40;10.40;;;9.10;;
6667;SDS011;3370;47.712;9.082;2022-11-15T06:38:07;12.80;;;8.90;;
6667;SDS011;3370;47.712;9.082;2022-11-15T06:40:36;15.13;;;10.40;;
6667;SDS011;3370;47.712;9.082;2022-11-15T06:43:03;11.47;;;10.13;;
6667;SDS011;3370;47.712;9.082;2022-11-15T06:45:30;10.57;;;9.10;;
6667;SDS011;3370;47.712;9.082;2022-11-15T06:47:57;9.80;;;8.73;;
6667;SDS011;3370;47.712;9.082;2022-11-15T06:50:23;11.43;;;10.23;;
6667;SDS011;3370;47.712;9.082;2022-11-15T06:52:50;11.27;;;9.93;;
6667;SDS011;3370;47.712;9.082;2022-11-15T06:55:16;10.33;;;9.20;;
6667;SDS011;3370;47.712;9.082;2022-11-15T06:57:48;13.57;;;8.70;;
6667;SDS011;3370;47.712;9.082;2022-11-15T07:00:17;17.43;;;8.50;;
6667;SDS011;3370;47.712;9.082;2022-11-15T07:02:46;9.47;;;8.47;;
6667;SDS011;3370;47.712;9.082;2022-11-15T07:05:12;20.77;;;7.73;;
6667;SDS011;3370;47.712;9.082;2022-11-15T07:07:39;21.73;;;8.20;;
6667;SDS011;3370;47.712;9.082;2022-11-15T07:10:06;58.70;;;9.30;;
6667;SDS011;3370;47.712;9.082;2022-11-15T07:12:32;39.20;;;9.43;;
6667;SDS011;3370;47.712;9.082;2022-11-15T07:14:58;105.87;;;9.50;;
6667;SDS011;3370;47.712;9.082;2022-11-15T07:17:24;94.20;;;10.73;;
6667;SDS011;3370;47.712;9.082;2022-11-15T07:19:50;138.93;;;12.77;;
6667;SDS011;3370;47.712;9.082;2022-11-15T07:22:16;407.60;;;16.30;;
6667;SDS011;3370;47.712;9.082;2022-11-15T07:24:42;42.63;;;13.53;;
6667;SDS011;3370;47.712;9.082;2022-11-15T07:27:08;84.20;;;10.97;;
6667;SDS011;3370;47.712;9.082;2022-11-15T07:29:34;329.00;;;16.60;;
6667;SDS011;3370;47.712;9.082;2022-11-15T07:32:00;412.83;;;16.40;;
6667;SDS011;3370;47.712;9.082;2022-11-15T07:34:26;90.73;;;13.53;;
6667;SDS011;3370;47.712;9.082;2022-11-15T07:36:52;89.27;;;14.87;;
6667;SDS011;3370;47.712;9.082;2022-11-15T07:39:17;285.07;;;18.27;;
6667;SDS011;3370;47.712;9.082;2022-11-15T07:41:43;56.03;;;12.77;;
6667;SDS011;3370;47.712;9.082;2022-11-15T07:44:09;129.30;;;14.60;;
6667;SDS011;3370;47.712;9.082;2022-11-15T07:46:35;124.50;;;14.43;;
6667;SDS011;3370;47.712;9.082;2022-11-15T07:49:01;223.00;;;15.90;;
6667;SDS011;3370;47.712;9.082;2022-11-15T07:51:27;50.27;;;11.83;;
6667;SDS011;3370;47.712;9.082;2022-11-15T07:53:52;52.33;;;11.40;;
6667;SDS011;3370;47.712;9.082;2022-11-15T07:56:18;193.57;;;16.43;;
6667;SDS011;3370;47.712;9.082;2022-11-15T07:58:45;247.37;;;16.63;;
6667;SDS011;3370;47.712;9.082;2022-11-15T08:01:11;52.23;;;11.90;;
6667;SDS011;3370;47.712;9.082;2022-11-15T08:03:38;83.63;;;13.40;;
6667;SDS011;3370;47.712;9.082;2022-11-15T08:06:04;14.60;;;12.37;;
6667;SDS011;3370;47.712;9.082;2022-11-15T08:08:30;39.17;;;14.03;;
6667;SDS011;3370;47.712;9.082;2022-11-15T08:10:59;158.70;;;16.10;;
6667;SDS011;3370;47.712;9.082;2022-11-15T08:13:25;20.50;;;13.70;;
6667;SDS011;3370;47.712;9.082;2022-11-15T08:15:51;25.63;;;15.33;;
6667;SDS011;3370;47.712;9.082;2022-11-15T08:18:22;20.33;;;13.23;;
6667;SDS011;3370;47.712;9.082;2022-11-15T08:20:47;16.27;;;12.53;;
6667;SDS011;3370;47.712;9.082;2022-11-15T08:23:13;21.47;;;11.40;;
6667;SDS011;3370;47.712;9.082;2022-11-15T08:25:39;60.90;;;13.37;;
6667;SDS011;3370;47.712;9.082;2022-11-15T08:28:06;52.23;;;12.40;;
6667;SDS011;3370;47.712;9.082;2022-11-15T08:30:35;71.63;;;11.67;;
6667;SDS011;3370;47.712;9.082;2022-11-15T08:33:09;45.57;;;10.47;;
6667;SDS011;3370;47.712;9.082;2022-11-15T08:35:36;149.17;;;12.57;;
6667;SDS011;3370;47.712;9.082;2022-11-15T08:38:02;19.43;;;9.87;;
6667;SDS011;3370;47.712;9.082;2022-11-15T08:40:28;33.43;;;9.60;;
6667;SDS011;3370;47.712;9.082;2022-11-15T08:42:54;22.10;;;10.60;;
6667;SDS011;3370;47.712;9.082;2022-11-15T08:45:20;33.57;;;11.73;;
6667;SDS011;3370;47.712;9.082;2022-11-15T08:47:46;31.23;;;12.27;;
6667;SDS011;3370;47.712;9.082;2022-11-15T08:50:12;13.73;;;11.13;;
6667;SDS011;3370;47.712;9.082;2022-11-15T08:52:37;20.03;;;11.97;;
6667;SDS011;3370;47.712;9.082;2022-11-15T08:55:03;15.23;;;11.03;;
6667;SDS011;3370;47.712;9.082;2022-11-15T08:57:30;34.03;;;11.50;;
6667;SDS011;3370;47.712;9.082;2022-11-15T08:59:56;64.60;;;14.53;;
6667;SDS011;3370;47.712;9.082;2022-11-15T09:02:22;44.57;;;12.00;;
6667;SDS011;3370;47.712;9.082;2022-11-15T09:04:48;28.83;;;13.73;;
6667;SDS011;3370;47.712;9.082;2022-11-15T09:07:14;23.93;;;12.57;;
6667;SDS011;3370;47.712;9.082;2022-11-15T09:09:40;36.07;;;12.10;;
6667;SDS011;3370;47.712;9.082;2022-11-15T09:12:07;22.33;;;11.80;;
6667;SDS011;3370;47.712;9.082;2022-11-15T09:14:33;18.73;;;12.27;;
6667;SDS011;3370;47.712;9.082;2022-11-15T09:16:59;17.10;;;12.63;;
6667;SDS011;3370;47.712;9.082;2022-11-15T09:19:26;29.83;;;12.83;;
6667;SDS011;3370;47.712;9.082;2022-11-15T09:21:52;30.43;;;11.37;;
6667;SDS011;3370;47.712;9.082;2022-11-15T09:24:18;19.47;;;11.30;;
6667;SDS011;3370;47.712;9.082;2022-11-15T09:26:44;25.30;;;11.70;;
6667;SDS011;3370;47.712;9.082;2022-11-15T09:29:09;27.20;;;12.00;;
6667;SDS011;3370;47.712;9.082;2022-11-15T09:31:35;21.03;;;12.10;;
6667;SDS011;3370;47.712;9.082;2022-11-15T09:34:01;21.73;;;12.80;;
6667;SDS011;3370;47.712;9.082;2022-11-15T09:36:27;22.57;;;12.80;;
6667;SDS011;3370;47.712;9.082;2022-11-15T09:38:53;19.70;;;13.50;;
6667;SDS011;3370;47.712;9.082;2022-11-15T09:41:30;22.90;;;13.73;;
6667;SDS011;3370;47.712;9.082;2022-11-15T09:50:12;18.07;;;13.50;;
6667;SDS011;3370;47.712;9.082;2022-11-15T09:52:43;16.70;;;14.17;;
6667;SDS011;3370;47.712;9.082;2022-11-15T09:55:11;18.67;;;14.13;;
6667;SDS011;3370;47.712;9.082;2022-11-15T10:00:54;15.97;;;12.40;;
6667;SDS011;3370;47.712;9.082;2022-11-15T10:03:25;18.83;;;14.80;;
6667;SDS011;3370;47.712;9.082;2022-11-15T10:06:02;18.33;;;14.57;;
6667;SDS011;3370;47.712;9.082;2022-11-15T10:11:16;16.90;;;13.37;;
6667;SDS011;3370;47.712;9.082;2022-11-15T10:13:50;17.77;;;14.23;;
6667;SDS011;3370;47.712;9.082;2022-11-15T10:27:33;23.47;;;16.53;;
6667;SDS011;3370;47.712;9.082;2022-11-15T10:29:59;22.60;;;15.97;;
6667;SDS011;3370;47.712;9.082;2022-11-15T10:32:26;18.90;;;15.00;;
6667;SDS011;3370;47.712;9.082;2022-11-15T10:34:52;19.50;;;14.93;;
6667;SDS011;3370;47.712;9.082;2022-11-15T10:37:27;21.57;;;15.50;;
6667;SDS011;3370;47.712;9.082;2022-11-15T10:42:44;20.90;;;15.30;;
6667;SDS011;3370;47.712;9.082;2022-11-15T10:45:22;20.73;;;15.40;;
6667;SDS011;3370;47.712;9.082;2022-11-15T10:47:52;23.63;;;15.43;;
6667;SDS011;3370;47.712;9.082;2022-11-15T10:50:26;23.03;;;16.00;;
6667;SDS011;3370;47.712;9.082;2022-11-15T10:52:57;22.93;;;16.23;;
6667;SDS011;3370;47.712;9.082;2022-11-15T10:55:27;20.27;;;16.17;;
6667;SDS011;3370;47.712;9.082;2022-11-15T10:58:05;20.17;;;15.90;;
6667;SDS011;3370;47.712;9.082;2022-11-15T11:00:44;26.10;;;16.97;;
6667;SDS011;3370;47.712;9.082;2022-11-15T11:06:10;24.87;;;18.80;;
6667;SDS011;3370;47.712;9.082;2022-11-15T11:11:23;27.27;;;15.87;;
6667;SDS011;3370;47.712;9.082;2022-11-15T11:14:12;22.63;;;15.20;;
6667;SDS011;3370;47.712;9.082;2022-11-15T11:16:58;19.77;;;14.60;;
6667;SDS011;3370;47.712;9.082;2022-11-15T11:22:20;22.83;;;14.93;;
6667;SDS011;3370;47.712;9.082;2022-11-15T11:31:04;27.87;;;15.80;;
6667;SDS011;3370;47.712;9.082;2022-11-15T11:36:23;17.70;;;13.00;;
6667;SDS011;3370;47.712;9.082;2022-11-15T11:39:29;16.33;;;13.23;;
6667;SDS011;3370;47.712;9.082;2022-11-15T11:48:38;19.50;;;14.90;;
6667;SDS011;3370;47.712;9.082;2022-11-15T11:51:22;18.60;;;14.97;;
6667;SDS011;3370;47.712;9.082;2022-11-15T11:56:50;21.43;;;14.33;;
6667;SDS011;3370;47.712;9.082;2022-11-15T11:59:22;16.80;;;13.03;;
6667;SDS011;3370;47.712;9.082;2022-11-15T12:05:08;17.47;;;13.67;;
6667;SDS011;3370;47.712;9.082;2022-11-15T12:07:42;14.50;;;11.10;;
6667;SDS011;3370;47.712;9.082;2022-11-15T12:13:00;15.03;;;10.57;;
6667;SDS011;3370;47.712;9.082;2022-11-15T12:15:39;12.53;;;10.30;;
6667;SDS011;3370;47.712;9.082;2022-11-15T12:18:35;12.00;;;10.70;;
6667;SDS011;3370;47.712;9.082;2022-11-15T12:21:04;12.70;;;9.90;;
6667;SDS011;3370;47.712;9.082;2022-11-15T12:26:49;15.20;;;11.23;;
6667;SDS011;3370;47.712;9.082;2022-11-15T12:29:28;16.03;;;12.67;;
6667;SDS011;3370;47.712;9.082;2022-11-15T12:32:03;17.80;;;11.90;;
6667;SDS011;3370;47.712;9.082;2022-11-15T12:34:35;15.17;;;12.80;;
6667;SDS011;3370;47.712;9.082;2022-11-15T12:37:51;14.40;;;11.67;;
6667;SDS011;3370;47.712;9.082;2022-11-15T12:45:29;17.17;;;12.33;;
6667;SDS011;3370;47.712;9.082;2022-11-15T13:04:11;20.83;;;13.80;;
6667;SDS011;3370;47.712;9.082;2022-11-15T13:17:02;15.60;;;11.10;;
6667;SDS011;3370;47.712;9.082;2022-11-15T13:19:58;13.33;;;11.40;;
6667;SDS011;3370;47.712;9.082;2022-11-15T13:22:39;17.13;;;11.97;;
6667;SDS011;3370;47.712;9.082;2022-11-15T13:30:48;12.30;;;8.93;;
6667;SDS011;3370;47.712;9.082;2022-11-15T13:33:41;11.70;;;9.70;;
6667;SDS011;3370;47.712;9.082;2022-11-15T13:36:21;10.97;;;9.67;;
6667;SDS011;3370;47.712;9.082;2022-11-15T13:39:33;11.67;;;9.13;;
6667;SDS011;3370;47.712;9.082;2022-11-15T13:41:49;10.83;;;9.00;;
6667;SDS011;3370;47.712;9.082;2022-11-15T13:44:23;9.57;;;8.67;;
6667;SDS011;3370;47.712;9.082;2022-11-15T13:47:03;9.53;;;8.50;;
6667;SDS011;3370;47.712;9.082;2022-11-15T13:49:37;9.10;;;7.27;;
6667;SDS011;3370;47.712;9.082;2022-11-15T13:52:04;8.40;;;7.60;;
6667;SDS011;3370;47.712;9.082;2022-11-15T13:57:11;10.23;;;8.70;;
6667;SDS011;3370;47.712;9.082;2022-11-15T13:59:53;9.50;;;8.50;;
6667;SDS011;3370;47.712;9.082;2022-11-15T14:02:29;12.90;;;9.33;;
6667;SDS011;3370;47.712;9.082;2022-11-15T14:04:59;9.13;;;8.00;;
6667;SDS011;3370;47.712;9.082;2022-11-15T14:07:51;10.23;;;8.27;;
6667;SDS011;3370;47.712;9.082;2022-11-15T14:10:33;9.20;;;8.23;;
6667;SDS011;3370;47.712;9.082;2022-11-15T14:13:01;12.13;;;8.37;;
6667;SDS011;3370;47.712;9.082;2022-11-15T14:17:57;9.57;;;7.60;;
6667;SDS011;3370;47.712;9.082;2022-11-15T14:23:02;12.43;;;7.87;;
6667;SDS011;3370;47.712;9.082;2022-11-15T14:25:55;13.63;;;8.50;;
6667;SDS011;3370;47.712;9.082;2022-11-15T14:30:48;9.40;;;7.80;;
6667;SDS011;3370;47.712;9.082;2022-11-15T14:33:18;8.47;;;7.50;;
6667;SDS011;3370;47.712;9.082;2022-11-15T14:36:03;12.80;;;7.97;;
6667;SDS011;3370;47.712;9.082;2022-11-15T14:38:35;12.83;;;9.03;;
6667;SDS011;3370;47.712;9.082;2022-11-15T14:41:01;11.40;;;9.57;;
6667;SDS011;3370;47.712;9.082;2022-11-15T14:43:27;10.47;;;8.70;;
6667;SDS011;3370;47.712;9.082;2022-11-15T14:45:53;11.60;;;10.13;;
6667;SDS011;3370;47.712;9.082;2022-11-15T14:48:18;12.50;;;10.43;;
6667;SDS011;3370;47.712;9.082;2022-11-15T14:50:44;13.43;;;10.47;;
6667;SDS011;3370;47.712;9.082;2022-11-15T14:53:14;11.57;;;10.23;;
6667;SDS011;3370;47.712;9.082;2022-11-15T14:55:42;21.20;;;10.33;;
6667;SDS011;3370;47.712;9.082;2022-11-15T14:58:09;14.53;;;11.87;;
6667;SDS011;3370;47.712;9.082;2022-11-15T15:00:38;11.90;;;10.27;;
6667;SDS011;3370;47.712;9.082;2022-11-15T15:03:06;13.00;;;10.80;;
6667;SDS011;3370;47.712;9.082;2022-11-15T15:05:37;14.43;;;10.00;;
6667;SDS011;3370;47.712;9.082;2022-11-15T15:08:05;17.10;;;11.60;;
6667;SDS011;3370;47.712;9.082;2022-11-15T15:10:35;15.43;;;12.10;;
6667;SDS011;3370;47.712;9.082;2022-11-15T15:13:05;20.73;;;12.23;;
6667;SDS011;3370;47.712;9.082;2022-11-15T15:15:36;16.67;;;13.07;;
6667;SDS011;3370;47.712;9.082;2022-11-15T15:18:03;15.20;;;12.70;;
6667;SDS011;3370;47.712;9.082;2022-11-15T15:20:33;18.83;;;14.77;;
6667;SDS011;3370;47.712;9.082;2022-11-15T15:23:01;16.83;;;13.50;;
6667;SDS011;3370;47.712;9.082;2022-11-15T15:25:28;17.50;;;13.40;;
6667;SDS011;3370;47.712;9.082;2022-11-15T15:27:57;15.00;;;12.80;;
6667;SDS011;3370;47.712;9.082;2022-11-15T15:30:25;17.30;;;14.03;;
6667;SDS011;3370;47.712;9.082;2022-11-15T15:32:53;15.93;;;13.50;;
6667;SDS011;3370;47.712;9.082;2022-11-15T15:35:19;15.50;;;13.33;;
6667;SDS011;3370;47.712;9.082;2022-11-15T15:37:46;16.43;;;13.13;;
6667;SDS011;3370;47.712;9.082;2022-11-15T15:40:18;17.50;;;13.93;;
6667;SDS011;3370;47.712;9.082;2022-11-15T15:42:47;18.40;;;12.80;;
6667;SDS011;3370;47.712;9.082;2022-11-15T15:45:13;15.97;;;12.97;;
6667;SDS011;3370;47.712;9.082;2022-11-15T15:47:41;17.97;;;14.87;;
6667;SDS011;3370;47.712;9.082;2022-11-15T15:50:21;13.97;;;11.67;;
6667;SDS011;3370;47.712;9.082;2022-11-15T15:52:51;16.30;;;12.67;;
6667;SDS011;3370;47.712;9.082;2022-11-15T15:55:20;15.43;;;12.80;;
6667;SDS011;3370;47.712;9.082;2022-11-15T15:57:46;16.97;;;13.87;;
6667;SDS011;3370;47.712;9.082;2022-11-15T16:00:13;17.93;;;13.40;;
6667;SDS011;3370;47.712;9.082;2022-11-15T16:02:40;16.57;;;13.20;;
6667;SDS011;3370;47.712;9.082;2022-11-15T16:05:07;16.90;;;13.73;;
6667;SDS011;3370;47.712;9.082;2022-11-15T16:07:34;15.73;;;13.40;;
6667;SDS011;3370;47.712;9.082;2022-11-15T16:10:01;19.33;;;13.97;;
6667;SDS011;3370;47.712;9.082;2022-11-15T16:12:41;16.60;;;13.73;;
6667;SDS011;3370;47.712;9.082;2022-11-15T16:15:07;17.07;;;13.27;;
6667;SDS011;3370;47.712;9.082;2022-11-15T16:17:34;16.37;;;14.07;;
6667;SDS011;3370;47.712;9.082;2022-11-15T16:20:06;19.47;;;13.90;;
6667;SDS011;3370;47.712;9.082;2022-11-15T16:22:54;20.50;;;14.80;;
6667;SDS011;3370;47.712;9.082;2022-11-15T16:25:19;18.13;;;14.87;;
6667;SDS011;3370;47.712;9.082;2022-11-15T16:27:45;20.30;;;14.07;;
6667;SDS011;3370;47.712;9.082;2022-11-15T16:30:15;19.87;;;15.70;;
6667;SDS011;3370;47.712;9.082;2022-11-15T16:32:43;17.87;;;14.87;;
6667;SDS011;3370;47.712;9.082;2022-11-15T16:35:12;19.13;;;14.60;;
6667;SDS011;3370;47.712;9.082;2022-11-15T16:37:39;18.07;;;13.90;;
6667;SDS011;3370;47.712;9.082;2022-11-15T16:40:23;18.10;;;15.33;;
6667;SDS011;3370;47.712;9.082;2022-11-15T16:42:51;14.43;;;12.40;;
6667;SDS011;3370;47.712;9.082;2022-11-15T16:45:17;16.47;;;13.27;;
6667;SDS011;3370;47.712;9.082;2022-11-15T16:47:43;15.93;;;13.63;;
6667;SDS011;3370;47.712;9.082;2022-11-15T16:50:13;16.47;;;12.93;;
6667;SDS011;3370;47.712;9.082;2022-11-15T16:52:53;20.97;;;13.73;;
6667;SDS011;3370;47.712;9.082;2022-11-15T16:55:22;16.20;;;13.47;;
6667;SDS011;3370;47.712;9.082;2022-11-15T16:57:55;19.67;;;14.80;;
6667;SDS011;3370;47.712;9.082;2022-11-15T17:00:26;18.07;;;15.30;;
6667;SDS011;3370;47.712;9.082;2022-11-15T17:02:52;20.03;;;15.33;;
6667;SDS011;3370;47.712;9.082;2022-11-15T17:05:20;23.63;;;15.67;;
6667;SDS011;3370;47.712;9.082;2022-11-15T17:07:49;20.10;;;16.13;;
6667;SDS011;3370;47.712;9.082;2022-11-15T17:10:18;17.23;;;13.73;;
6667;SDS011;3370;47.712;9.082;2022-11-15T17:12:46;18.17;;;14.80;;
6667;SDS011;3370;47.712;9.082;2022-11-15T17:15:12;17.07;;;14.23;;
6667;SDS011;3370;47.712;9.082;2022-11-15T17:17:38;14.80;;;13.07;;
6667;SDS011;3370;47.712;9.082;2022-11-15T17:20:05;17.80;;;13.57;;
6667;SDS011;3370;47.712;9.082;2022-11-15T17:22:41;17.43;;;13.60;;
6667;SDS011;3370;47.712;9.082;2022-11-15T17:25:07;13.73;;;12.03;;
6667;SDS011;3370;47.712;9.082;2022-11-15T17:27:33;16.30;;;13.13;;
6667;SDS011;3370;47.712;9.082;2022-11-15T17:29:59;17.00;;;11.63;;
6667;SDS011;3370;47.712;9.082;2022-11-15T17:32:25;18.77;;;14.70;;
6667;SDS011;3370;47.712;9.082;2022-11-15T17:34:51;19.30;;;12.67;;
6667;SDS011;3370;47.712;9.082;2022-11-15T17:37:17;18.53;;;13.80;;
6667;SDS011;3370;47.712;9.082;2022-11-15T17:39:43;16.53;;;13.10;;
6667;SDS011;3370;47.712;9.082;2022-11-15T17:42:08;20.63;;;14.53;;
6667;SDS011;3370;47.712;9.082;2022-11-15T17:44:34;15.30;;;13.20;;
6667;SDS011;3370;47.712;9.082;2022-11-15T17:47:00;24.10;;;13.77;;